Time;durP1;ratioP1;P1;durP2;ratioP2;P2;SDS_P1;SDS_P2;PMS_P1;PMS_P2;Temp;Humidity;BMP_temperature;BMP_pressure;BME280_temperature;BME280_humidity;BME280_pressure;Samples;Min_cycle;Max_cycle;Signal;HPM_P1;HPM_P2
2022/03/27 00:02:09;;;;;;;50.63;24.40;;;;;;;4.38;61.60;99939.41;5041779;28;20261;-91
2022/03/27 00:04:35;;;;;;;47.57;23.50;;;;;;;5.95;61.74;100199.00;5041823;28;20176;-91
2022/03/27 00:07:01;;;;;;;44.23;21.50;;;;;;;4.14;61.64;99902.47;5042005;28;20165;-91
2022/03/27 00:09:26;;;;;;;45.97;22.70;;;;;;;2.33;62.28;99608.94;5057152;28;20427;-91
2022/03/27 00:11:52;;;;;;;48.90;22.53;;;;;;;5.83;62.43;100221.53;5054150;28;20165;-91
2022/03/27 00:14:17;;;;;;;47.23;22.67;;;;;;;5.99;61.18;100220.22;5035879;28;20173;-91
2022/03/27 00:16:43;;;;;;;43.57;21.77;;;;;;;5.06;61.42;100061.59;5051356;28;20167;-91
2022/03/27 00:19:08;;;;;;;40.53;21.90;;;;;;;3.89;61.15;99839.59;5034342;28;20188;-89
2022/03/27 00:21:34;;;;;;;40.57;22.03;;;;;;;4.44;60.72;99909.81;5052854;28;20272;-91
2022/03/27 00:23:59;;;;;;;47.70;22.60;;;;;;;5.07;59.41;99988.97;5072921;28;20183;-90
2022/03/27 00:26:27;;;;;;;126.60;50.90;;;;;;;5.17;59.23;99981.34;5073451;28;20174;-90
2022/03/27 00:28:53;;;;;;;62.23;30.10;;;;;;;5.07;59.85;99981.44;5042781;28;20168;-90
2022/03/27 00:31:19;;;;;;;49.77;24.70;;;;;;;4.15;60.07;99834.03;5037923;28;20976;-91
2022/03/27 00:33:46;;;;;;;49.73;24.10;;;;;;;4.03;60.39;99808.97;5036760;28;20170;-91
2022/03/27 00:36:13;;;;;;;46.03;24.23;;;;;;;5.94;60.22;100147.84;5053394;28;20474;-92
2022/03/27 00:38:40;;;;;;;48.30;23.47;;;;;;;5.97;60.26;100144.69;5039226;28;20508;-88
2022/03/27 00:41:06;;;;;;;44.50;22.17;;;;;;;4.70;60.38;99931.78;5042351;28;20539;-91
2022/03/27 00:43:33;;;;;;;42.70;22.20;;;;;;;5.26;60.22;99999.59;5055154;28;20443;-91
2022/03/27 00:45:59;;;;;;;51.37;26.63;;;;;;;4.90;60.06;99945.81;5052186;28;20169;-92
2022/03/27 00:48:25;;;;;;;57.50;26.30;;;;;;;2.88;59.80;99597.44;5036540;28;20431;-91
2022/03/27 00:50:52;;;;;;;46.27;23.13;;;;;;;4.06;60.01;99799.19;5037010;28;20491;-90
2022/03/27 00:53:19;;;;;;;40.97;21.73;;;;;;;5.49;59.51;100051.53;5036889;28;20407;-91
2022/03/27 00:55:45;;;;;;;42.63;19.27;;;;;;;4.02;59.08;99782.16;5037255;28;20471;-92
2022/03/27 00:58:12;;;;;;;37.17;18.70;;;;;;;6.46;59.20;100210.34;5037175;28;20411;-90
2022/03/27 01:00:37;;;;;;;37.97;19.37;;;;;;;6.34;60.25;100198.53;5040179;28;20458;-91
2022/03/27 01:03:04;;;;;;;39.00;20.67;;;;;;;3.93;61.10;99821.53;5040794;28;20427;-93
2022/03/27 01:05:30;;;;;;;52.13;22.87;;;;;;;4.56;62.67;99990.09;5057328;28;20558;-90
2022/03/27 01:07:56;;;;;;;46.10;21.53;;;;;;;5.60;63.96;100191.31;5040296;28;20408;-91
2022/03/27 01:10:25;;;;;;;49.90;22.57;;;;;;;3.10;63.90;99799.16;5056955;28;20167;-92
2022/03/27 01:12:51;;;;;;;53.47;22.73;;;;;;;3.22;64.88;99822.59;5073170;28;20406;-90
2022/03/27 01:15:41;;;;;;;46.20;20.97;;;;;;;5.33;64.93;100181.66;5054573;28;20664;-90
2022/03/27 01:18:07;;;;;;;45.77;21.03;;;;;;;4.09;64.63;99969.72;5039756;28;20468;-90
2022/03/27 01:20:35;;;;;;;46.17;20.70;;;;;;;5.35;63.92;100206.16;5037838;28;20459;-91
2022/03/27 01:23:01;;;;;;;40.90;18.67;;;;;;;5.17;63.97;100167.06;5056489;28;20190;-91
2022/03/27 01:25:27;;;;;;;43.20;19.63;;;;;;;5.27;63.29;100184.56;5039802;28;20771;-90
2022/03/27 01:27:53;;;;;;;39.90;17.47;;;;;;;2.79;62.95;99739.22;5038828;28;20790;-90
2022/03/27 01:30:19;;;;;;;44.57;18.20;;;;;;;4.65;63.22;100071.88;5039631;28;20422;-92
2022/03/27 01:32:45;;;;;;;41.13;18.07;;;;;;;3.81;63.80;99973.38;5056348;28;20261;-91
2022/03/27 01:35:12;;;;;;;42.83;17.83;;;;;;;2.51;62.95;99714.41;5045623;28;20434;-90
2022/03/27 01:37:37;;;;;;;40.17;17.73;;;;;;;5.14;63.26;100166.84;5053159;28;20155;-89
2022/03/27 01:40:04;;;;;;;50.50;18.03;;;;;;;4.10;63.83;100020.72;5071869;28;20421;-91
2022/03/27 01:42:29;;;;;;;47.70;18.90;;;;;;;4.21;64.01;100051.63;5065325;28;20574;-92
2022/03/27 01:44:55;;;;;;;45.63;18.00;;;;;;;3.17;63.97;99853.91;5056291;28;20404;-90
2022/03/27 01:47:20;;;;;;;52.43;18.73;;;;;;;5.08;62.83;100126.19;5038840;28;20528;-91
2022/03/27 01:49:46;;;;;;;46.70;18.17;;;;;;;4.41;62.94;100019.84;5039249;28;20200;-91
2022/03/27 01:52:11;;;;;;;36.97;16.30;;;;;;;4.86;63.07;100094.38;5039156;28;20169;-91
2022/03/27 01:54:36;;;;;;;41.87;17.40;;;;;;;3.62;62.04;99844.13;5039265;28;20499;-91
2022/03/27 01:57:03;;;;;;;40.03;17.50;;;;;;;4.28;61.80;99941.09;5038537;28;20539;-93
2022/03/27 01:59:28;;;;;;;42.50;17.40;;;;;;;5.56;62.08;100184.28;5055958;28;20181;-91
2022/03/27 02:01:54;;;;;;;39.00;17.63;;;;;;;5.59;61.67;100164.44;5071070;28;20502;-90
2022/03/27 02:04:19;;;;;;;37.37;17.60;;;;;;;3.86;61.21;99864.41;5057239;28;20203;-91
2022/03/27 02:06:45;;;;;;;40.10;17.00;;;;;;;5.48;62.08;100174.41;5058912;28;20187;-91
2022/03/27 02:09:12;;;;;;;35.10;15.93;;;;;;;5.34;61.99;100131.59;5037730;28;20241;-92
2022/03/27 02:11:41;;;;;;;39.37;15.90;;;;;;;4.18;61.92;99950.41;5037214;28;20169;-92
2022/03/27 02:14:08;;;;;;;40.70;16.40;;;;;;;3.36;61.55;99762.91;5055125;28;20930;-91
2022/03/27 02:16:34;;;;;;;39.30;15.60;;;;;;;4.12;61.80;99936.56;5052602;28;20469;-92
2022/03/27 02:18:59;;;;;;;36.33;15.70;;;;;;;4.97;61.38;100066.81;5050988;28;20508;-92
2022/03/27 02:21:24;;;;;;;32.80;15.50;;;;;;;5.47;62.02;100158.47;5034247;28;20214;-93
2022/03/27 02:23:50;;;;;;;38.20;16.23;;;;;;;3.31;62.22;99808.31;5037495;28;20188;-91
2022/03/27 02:26:15;;;;;;;35.80;15.90;;;;;;;4.42;62.08;99970.59;5054080;28;20173;-92
2022/03/27 02:28:41;;;;;;;34.30;16.23;;;;;;;4.17;62.56;99941.13;5037310;28;20267;-92
2022/03/27 02:31:08;;;;;;;34.47;16.13;;;;;;;2.96;61.75;99728.94;5037148;28;20200;-93
2022/03/27 02:33:35;;;;;;;29.93;14.33;;;;;;;3.45;61.53;99831.19;5040055;28;20176;-90
2022/03/27 02:36:01;;;;;;;27.17;13.93;;;;;;;3.97;63.23;99943.75;5042902;28;20418;-90
2022/03/27 02:38:26;;;;;;;27.27;13.17;;;;;;;3.05;63.54;99817.94;5040932;28;20414;-89
2022/03/27 02:40:52;;;;;;;30.60;13.23;;;;;;;4.99;64.67;100175.69;5038272;28;20218;-92
2022/03/27 02:43:17;;;;;;;30.63;13.70;;;;;;;3.83;64.86;99999.41;5054504;28;20169;-91
2022/03/27 02:45:43;;;;;;;26.93;13.27;;;;;;;4.84;64.11;100113.41;5053614;28;20183;-91
2022/03/27 02:48:08;;;;;;;28.07;14.20;;;;;;;5.22;63.69;100174.94;5053995;28;20180;-90
2022/03/27 02:50:37;;;;;;;49.27;22.33;;;;;;;5.24;63.94;100208.59;5060319;28;20200;-90
2022/03/27 02:53:03;;;;;;;90.00;35.70;;;;;;;3.81;64.11;99940.81;5049987;28;20166;-90
2022/03/27 02:55:28;;;;;;;119.93;45.50;;;;;;;1.10;65.00;99503.28;5065035;28;20419;-90
2022/03/27 02:57:54;;;;;;;45.97;21.07;;;;;;;2.20;64.99;99691.97;5036622;28;20410;-93
2022/03/27 03:00:21;;;;;;;36.90;18.47;;;;;;;3.78;65.88;99980.63;5053206;28;20178;-92
2022/03/27 03:02:46;;;;;;;31.40;15.37;;;;;;;5.01;65.98;100201.78;5054054;28;20167;-92
2022/03/27 03:05:12;;;;;;;32.17;14.63;;;;;;;2.57;67.53;99805.75;5054918;28;20414;-91
2022/03/27 03:07:41;;;;;;;30.97;14.80;;;;;;;4.90;66.85;100189.16;5037033;28;20171;-92
2022/03/27 03:10:07;;;;;;;29.33;13.97;;;;;;;4.97;66.67;100219.84;5053587;28;20462;-92
2022/03/27 03:12:33;;;;;;;27.53;13.63;;;;;;;3.68;66.74;99982.28;5035962;28;20397;-90
2022/03/27 03:14:58;;;;;;;247.47;85.37;;;;;;;5.15;66.20;100196.19;5035111;28;20421;-92
2022/03/27 03:17:25;;;;;;;408.10;140.83;;;;;;;1.85;65.39;99627.47;5035124;28;20226;-92
2022/03/27 03:19:51;;;;;;;475.33;184.13;;;;;;;5.27;65.28;100199.63;5035136;28;20172;-92
2022/03/27 03:22:17;;;;;;;374.00;142.30;;;;;;;4.84;64.11;100130.97;5050614;28;20814;-91
2022/03/27 03:24:42;;;;;;;398.20;162.57;;;;;;;2.07;63.85;99639.31;5051084;28;20175;-92
2022/03/27 03:27:08;;;;;;;285.27;122.80;;;;;;;3.03;63.90;99809.41;5035012;28;20171;-91
2022/03/27 03:29:33;;;;;;;231.43;103.20;;;;;;;4.14;63.51;99991.03;5051541;28;20176;-91
2022/03/27 03:31:59;;;;;;;246.83;118.00;;;;;;;4.97;63.44;100127.00;5040032;28;20185;-91
2022/03/27 03:34:24;;;;;;;77.03;37.33;;;;;;;2.37;63.44;99690.84;5053860;28;20282;-92
2022/03/27 03:36:50;;;;;;;28.90;15.50;;;;;;;2.83;64.16;99775.34;5035177;28;20231;-92
2022/03/27 03:39:15;;;;;;;24.20;12.63;;;;;;;5.38;64.43;100208.88;5036724;28;20165;-90
2022/03/27 03:41:41;;;;;;;24.03;12.23;;;;;;;3.77;63.87;99938.81;5071043;28;20190;-89
2022/03/27 03:44:07;;;;;;;26.80;13.13;;;;;;;3.49;63.85;99867.31;5052224;28;20233;-90
2022/03/27 03:46:33;;;;;;;24.83;13.33;;;;;;;5.48;63.23;100210.47;5069827;28;20165;-89
2022/03/27 03:48:58;;;;;;;29.60;13.20;;;;;;;5.53;63.82;100233.41;5036736;28;20418;-90
2022/03/27 03:51:24;;;;;;;25.40;11.90;;;;;;;1.53;63.51;99563.41;5053658;28;20638;-91
2022/03/27 03:53:49;;;;;;;34.23;13.20;;;;;;;4.23;63.41;100010.88;5043875;28;20165;-88
2022/03/27 03:56:15;;;;;;;56.07;27.37;;;;;;;1.52;63.07;99549.16;5045494;28;20183;-90
2022/03/27 03:58:40;;;;;;;83.87;40.77;;;;;;;4.22;63.81;100014.16;5056973;28;20168;-90
2022/03/27 04:01:06;;;;;;;55.37;26.13;;;;;;;3.63;64.19;99945.97;5036135;28;20627;-90
2022/03/27 04:03:31;;;;;;;30.33;13.80;;;;;;;2.75;64.13;99796.34;5035385;28;20173;-91
2022/03/27 04:05:57;;;;;;;22.90;11.07;;;;;;;2.41;64.86;99776.91;5035264;28;20174;-89
2022/03/27 04:08:22;;;;;;;20.53;11.63;;;;;;;1.95;64.64;99698.22;5035043;28;20178;-91
2022/03/27 04:10:48;;;;;;;21.73;11.53;;;;;;;2.68;64.87;99829.97;5052247;28;20167;-90
2022/03/27 04:13:14;;;;;;;21.87;11.40;;;;;;;0.31;64.65;99417.03;5034509;28;20219;-91
2022/03/27 04:15:39;;;;;;;28.97;14.03;;;;;;;3.85;64.12;99980.34;5052580;28;20413;-91
2022/03/27 04:18:06;;;;;;;27.03;12.30;;;;;;;2.49;64.80;99781.75;5047399;28;20221;-91
2022/03/27 04:20:32;;;;;;;19.97;11.03;;;;;;;2.56;64.88;99808.09;5031307;28;20760;-90
2022/03/27 04:22:57;;;;;;;26.57;11.27;;;;;;;4.00;64.24;100035.78;5032394;28;20439;-91
2022/03/27 04:25:22;;;;;;;24.37;11.37;;;;;;;4.74;63.81;100122.75;5033778;28;20200;-92
2022/03/27 04:27:48;;;;;;;25.93;12.03;;;;;;;3.82;63.58;99965.06;5035506;28;20240;-90
2022/03/27 04:30:13;;;;;;;26.03;12.33;;;;;;;2.10;63.16;99673.66;5045675;28;20177;-92
2022/03/27 04:32:40;;;;;;;21.67;11.60;;;;;;;2.21;63.25;99702.84;5048690;28;20166;-91
2022/03/27 04:35:08;;;;;;;26.63;11.30;;;;;;;2.68;63.01;99765.00;5062447;28;20259;-90
2022/03/27 04:37:38;;;;;;;20.00;10.47;;;;;;;3.35;63.19;99900.41;5052647;28;20412;-91
2022/03/27 04:40:04;;;;;;;20.00;9.60;;;;;;;4.82;63.24;100150.94;5035601;28;20401;-91
2022/03/27 04:42:30;;;;;;;21.70;9.33;;;;;;;4.42;63.03;100095.94;5035423;28;20455;-91
2022/03/27 04:44:55;;;;;;;24.10;12.03;;;;;;;5.43;63.13;100241.88;5051487;28;20200;-92
2022/03/27 04:47:21;;;;;;;19.97;9.73;;;;;;;5.45;62.74;100244.50;5034601;28;20537;-91
2022/03/27 04:49:47;;;;;;;27.53;12.20;;;;;;;4.16;63.24;100044.63;5051673;28;20204;-91
2022/03/27 04:52:13;;;;;;;38.60;18.93;;;;;;;2.93;62.53;99811.19;5035266;28;20409;-92
2022/03/27 04:54:39;;;;;;;30.53;14.43;;;;;;;3.64;63.37;99965.25;5035042;28;20170;-91
2022/03/27 04:57:05;;;;;;;24.83;11.67;;;;;;;5.04;63.57;100198.63;5035676;28;20174;-92
2022/03/27 04:59:30;;;;;;;27.83;13.43;;;;;;;4.31;62.62;100077.56;5035336;28;20408;-91
2022/03/27 05:01:57;;;;;;;30.53;15.23;;;;;;;5.38;63.52;100233.97;5035560;28;20305;-90
2022/03/27 05:04:22;;;;;;;23.63;12.23;;;;;;;5.42;63.71;100257.69;5035693;28;20176;-92
2022/03/27 05:06:48;;;;;;;26.77;13.50;;;;;;;5.76;63.71;100276.22;5034167;28;20411;-91
2022/03/27 05:09:13;;;;;;;36.00;14.73;;;;;;;3.15;63.53;99812.88;5034689;28;20172;-92
2022/03/27 05:11:38;;;;;;;35.73;18.07;;;;;;;2.27;63.00;99643.41;5039244;28;20176;-92
2022/03/27 05:14:04;;;;;;;32.27;14.13;;;;;;;3.61;63.95;99868.28;5034596;28;20177;-90
2022/03/27 05:16:30;;;;;;;24.23;11.77;;;;;;;5.09;63.94;100109.53;5050604;28;20170;-90
2022/03/27 05:18:55;;;;;;;27.23;13.67;;;;;;;3.40;63.25;99779.91;5037912;28;20254;-90
2022/03/27 05:21:21;;;;;;;30.73;15.03;;;;;;;6.54;62.30;100264.59;5061500;28;20202;-91
2022/03/27 05:23:47;;;;;;;40.33;19.83;;;;;;;5.56;61.40;100056.22;5049971;28;20649;-89
2022/03/27 05:26:12;;;;;;;53.80;25.13;;;;;;;4.56;61.11;99858.06;5044269;28;20475;-90
2022/03/27 05:28:38;;;;;;;49.50;28.43;;;;;;;4.93;61.22;99903.41;5056571;28;20531;-90
2022/03/27 05:31:08;;;;;;;39.43;21.77;;;;;;;5.16;60.44;99874.22;5040392;28;20173;-92
2022/03/27 05:33:36;;;;;;;42.83;22.33;;;;;;;6.56;59.15;100055.94;5039758;28;20183;-90
2022/03/27 05:36:03;;;;;;;21.33;11.70;;;;;;;6.16;54.87;99881.34;5063988;28;20428;-92
2022/03/27 05:38:29;;;;;;;18.60;9.53;;;;;;;6.55;51.87;99835.38;5039651;28;21002;-92
2022/03/27 05:40:54;;;;;;;18.40;10.87;;;;;;;5.95;49.65;99671.31;5038295;28;20501;-89
2022/03/27 05:43:20;;;;;;;21.43;11.07;;;;;;;7.82;47.75;99924.22;5051181;28;20188;-92
2022/03/27 05:45:45;;;;;;;14.77;7.87;;;;;;;8.70;46.53;100007.91;5065498;28;20185;-90
2022/03/27 05:48:12;;;;;;;14.67;7.93;;;;;;;10.39;45.70;100239.59;5042690;28;20173;-89
2022/03/27 05:50:38;;;;;;;15.03;7.30;;;;;;;8.60;44.99;99897.06;5045706;28;20174;-92
2022/03/27 05:53:03;;;;;;;17.40;7.77;;;;;;;8.71;43.96;99873.31;5061325;28;20176;-92
2022/03/27 05:55:29;;;;;;;17.53;8.73;;;;;;;9.36;44.02;99965.53;5045530;28;20205;-90
2022/03/27 05:57:54;;;;;;;17.00;8.07;;;;;;;9.07;42.79;99889.72;5043634;28;20172;-89
2022/03/27 06:00:20;;;;;;;15.97;7.90;;;;;;;11.42;43.04;100263.13;5065201;28;20196;-90
2022/03/27 06:02:47;;;;;;;16.00;8.20;;;;;;;9.20;42.46;99859.34;5040124;28;20276;-90
2022/03/27 06:05:13;;;;;;;18.00;8.47;;;;;;;10.58;42.22;100070.22;5038295;28;20169;-91
2022/03/27 06:07:46;;;;;;;18.60;9.13;;;;;;;11.20;41.94;100147.94;5058879;28;20199;-90
2022/03/27 06:10:12;;;;;;;13.00;6.53;;;;;;;12.00;41.17;100279.81;5076312;28;20153;-89
2022/03/27 06:12:38;;;;;;;20.33;9.93;;;;;;;10.12;41.18;99926.78;5074988;28;20218;-90
2022/03/27 06:15:04;;;;;;;20.07;10.50;;;;;;;9.35;40.89;99781.88;5056336;28;20161;-92
2022/03/27 06:17:29;;;;;;;23.23;8.30;;;;;;;11.46;40.76;100140.78;5040391;28;20221;-88
2022/03/27 06:19:55;;;;;;;20.17;10.13;;;;;;;11.07;40.77;100026.44;5058580;28;20645;-89
2022/03/27 06:22:20;;;;;;;19.00;9.10;;;;;;;10.44;39.83;99897.34;5044080;28;20239;-89
2022/03/27 06:24:46;;;;;;;18.23;10.03;;;;;;;10.91;39.76;99975.78;5043074;28;20717;-90
2022/03/27 06:27:11;;;;;;;43.27;17.40;;;;;;;12.43;39.73;100212.63;5042586;28;20161;-89
2022/03/27 06:29:36;;;;;;;36.93;15.83;;;;;;;10.84;39.50;99927.25;5042442;28;20542;-90
2022/03/27 06:32:02;;;;;;;21.80;9.93;;;;;;;11.09;38.64;99961.53;5055948;28;20153;-89
2022/03/27 06:34:29;;;;;;;22.40;10.10;;;;;;;12.99;38.31;100264.50;5036595;28;20234;-91
2022/03/27 06:36:55;;;;;;;24.47;12.27;;;;;;;12.29;38.48;100132.38;5036136;28;20165;-89
2022/03/27 06:39:21;;;;;;;17.00;8.70;;;;;;;12.53;37.91;100142.81;5055025;28;20191;-89
2022/03/27 06:41:46;;;;;;;28.53;14.83;;;;;;;9.83;38.13;99695.97;5054989;28;20191;-89
2022/03/27 06:44:13;;;;;;;14.50;8.50;;;;;;;11.20;38.05;99843.81;5054990;28;20165;-90
2022/03/27 06:46:39;;;;;;;14.53;8.47;;;;;;;11.19;37.93;99872.47;5036344;28;20551;-89
2022/03/27 06:49:04;;;;;;;16.80;9.63;;;;;;;11.87;37.59;99962.84;5036091;28;20181;-90
2022/03/27 06:51:31;;;;;;;14.20;7.57;;;;;;;13.64;38.08;100288.75;5052633;28;20201;-90
2022/03/27 06:53:56;;;;;;;15.20;8.40;;;;;;;13.75;38.42;100293.53;5038258;28;20176;-91
2022/03/27 06:56:22;;;;;;;14.77;8.53;;;;;;;12.13;38.65;99985.22;5056749;28;20165;-89
2022/03/27 06:58:47;;;;;;;12.47;6.73;;;;;;;13.85;38.48;100289.72;5073088;28;20192;-89
2022/03/27 07:03:59;;;;;;;18.00;9.33;;;;;;;12.39;37.75;99962.75;5033100;28;20185;-89
2022/03/27 07:06:24;;;;;;;13.20;6.90;;;;;;;13.57;37.54;100156.19;5015923;28;20208;-88
2022/03/27 07:08:49;;;;;;;14.03;7.47;;;;;;;12.44;36.98;100004.47;5032413;28;20721;-88
2022/03/27 07:11:15;;;;;;;14.43;6.87;;;;;;;12.41;36.36;99996.69;5017945;28;20193;-89
2022/03/27 07:13:41;;;;;;;22.37;10.37;;;;;;;13.39;36.80;100091.81;5018893;28;20162;-89
2022/03/27 07:16:07;;;;;;;24.93;11.10;;;;;;;14.22;36.90;100231.09;5021462;28;20189;-90
2022/03/27 07:18:32;;;;;;;18.47;10.70;;;;;;;12.35;36.65;99866.97;5020352;28;20226;-88
2022/03/27 07:20:59;;;;;;;21.77;11.30;;;;;;;13.26;36.26;100002.22;5021713;28;20244;-91
2022/03/27 07:23:26;;;;;;;17.97;10.27;;;;;;;13.66;35.62;99997.97;5017292;28;20171;-90
2022/03/27 07:25:53;;;;;;;15.90;7.73;;;;;;;14.20;35.85;100070.63;5032238;28;20691;-89
2022/03/27 07:28:19;;;;;;;16.97;7.43;;;;;;;14.14;34.62;100022.84;5033888;28;20212;-90
2022/03/27 07:30:48;;;;;;;18.23;8.13;;;;;;;15.62;34.64;100274.22;5014846;28;20201;-89
2022/03/27 07:33:15;;;;;;;15.47;7.90;;;;;;;14.04;34.64;100020.72;5014965;28;20236;-91
2022/03/27 07:35:40;;;;;;;14.67;8.57;;;;;;;14.07;34.89;100013.22;5017613;28;20240;-91
2022/03/27 07:38:07;;;;;;;15.60;9.20;;;;;;;16.07;34.71;100290.38;5022792;28;20166;-91
2022/03/27 07:40:33;;;;;;;16.60;8.30;;;;;;;14.50;34.34;99992.81;5037502;28;20193;-91
2022/03/27 07:42:59;;;;;;;22.23;9.27;;;;;;;16.31;34.50;100246.13;5045265;28;20185;-92
2022/03/27 07:45:27;;;;;;;14.63;8.03;;;;;;;16.27;34.27;100286.81;5071624;28;20184;-89
2022/03/27 07:47:54;;;;;;;15.67;8.60;;;;;;;14.60;34.59;99936.31;5069903;28;20157;-89
2022/03/27 07:50:21;;;;;;;16.63;8.17;;;;;;;16.69;33.47;100252.53;5052133;28;20172;-90
2022/03/27 07:52:47;;;;;;;13.10;7.40;;;;;;;14.52;33.62;99866.38;5031074;28;20288;-90
2022/03/27 07:55:14;;;;;;;15.27;7.73;;;;;;;15.34;32.94;100023.09;5037214;28;20209;-90
2022/03/27 07:57:42;;;;;;;16.80;6.67;;;;;;;15.78;31.77;100068.03;5033200;28;20165;-90
2022/03/27 08:00:10;;;;;;;18.63;8.83;;;;;;;15.50;31.39;99977.72;5050913;28;20185;-89
2022/03/27 08:02:40;;;;;;;12.77;6.47;;;;;;;17.15;30.73;100251.41;5034262;28;20283;-90
2022/03/27 08:05:06;;;;;;;15.90;8.87;;;;;;;15.64;30.65;99982.47;5053551;28;20173;-89
2022/03/27 08:07:32;;;;;;;15.60;6.87;;;;;;;15.46;30.47;99946.16;5053270;28;20517;-91
2022/03/27 08:09:58;;;;;;;15.27;6.93;;;;;;;16.04;29.91;99993.97;5057716;28;20177;-90
2022/03/27 08:12:24;;;;;;;11.33;7.30;;;;;;;16.09;29.98;100044.38;5041890;28;20170;-89
2022/03/27 08:14:49;;;;;;;13.33;6.97;;;;;;;15.82;30.53;99972.00;5056904;28;20180;-89
2022/03/27 08:17:16;;;;;;;19.10;8.33;;;;;;;16.86;30.09;100151.66;5057221;28;20253;-88
2022/03/27 08:19:43;;;;;;;15.17;7.17;;;;;;;15.91;29.93;99916.09;5040864;28;20173;-90
2022/03/27 08:22:09;;;;;;;11.70;6.83;;;;;;;14.98;29.57;99730.28;5038905;28;20216;-89
2022/03/27 08:24:34;;;;;;;15.03;9.10;;;;;;;16.31;29.55;99933.50;5040817;28;20622;-88
2022/03/27 08:27:00;;;;;;;15.20;6.80;;;;;;;16.72;28.90;100004.59;5039448;28;20165;-90
2022/03/27 08:29:29;;;;;;;14.33;8.20;;;;;;;18.19;28.32;100263.06;5058146;28;20178;-92
2022/03/27 08:31:55;;;;;;;19.00;11.07;;;;;;;18.55;27.66;100252.94;5040277;28;20327;-88
2022/03/27 08:34:23;;;;;;;19.07;9.43;;;;;;;16.97;27.03;99934.53;5047042;28;20177;-86
2022/03/27 08:36:49;;;;;;;17.67;7.70;;;;;;;15.71;27.42;99739.31;5047180;28;20162;-88
2022/03/27 08:39:15;;;;;;;24.00;9.27;;;;;;;18.56;27.40;100216.22;5047927;28;20741;-88
2022/03/27 08:41:45;;;;;;;18.73;9.57;;;;;;;19.08;26.84;100225.13;5041316;28;20186;-88
2022/03/27 08:44:12;;;;;;;12.43;7.07;;;;;;;17.19;26.70;99934.28;5039096;28;20169;-88
2022/03/27 08:46:40;;;;;;;12.90;7.63;;;;;;;17.08;26.64;99941.63;5038958;28;20169;-88
2022/03/27 08:49:15;;;;;;;15.90;8.77;;;;;;;19.10;26.83;100205.50;5039406;28;20248;-88
2022/03/27 08:51:48;;;;;;;16.30;8.10;;;;;;;17.40;26.88;99951.84;5062967;28;20242;-88
2022/03/27 08:54:18;;;;;;;17.50;8.47;;;;;;;19.03;26.10;100201.94;5042673;28;20231;-88
2022/03/27 08:56:50;;;;;;;15.87;6.77;;;;;;;19.02;26.31;100210.47;5039409;28;20209;-88
2022/03/27 08:59:17;;;;;;;18.63;7.87;;;;;;;17.89;26.87;100047.03;5039547;28;20631;-88
2022/03/27 09:01:43;;;;;;;12.57;7.70;;;;;;;18.01;26.87;100052.47;5040182;28;20719;-86
2022/03/27 09:04:11;;;;;;;17.57;7.93;;;;;;;18.80;26.35;100127.00;5037513;28;20166;-88
2022/03/27 09:06:36;;;;;;;17.97;10.20;;;;;;;19.81;26.06;100218.19;5037108;28;20189;-88
2022/03/27 09:09:02;;;;;;;19.90;9.60;;;;;;;17.78;25.03;99935.75;5039187;28;20757;-89
2022/03/27 09:11:31;;;;;;;14.67;8.93;;;;;;;19.69;24.42;100204.25;5038727;28;20652;-89
2022/03/27 09:13:56;;;;;;;22.90;12.43;;;;;;;19.04;24.44;99998.34;5038887;28;20162;-88
2022/03/27 09:16:22;;;;;;;19.37;8.57;;;;;;;18.40;23.71;99934.59;5038930;28;20169;-88
2022/03/27 09:18:53;;;;;;;17.37;8.73;;;;;;;18.63;23.17;99938.50;5049240;28;20223;-88
2022/03/27 09:21:22;;;;;;;14.97;8.23;;;;;;;20.13;23.48;100187.97;5064164;28;20173;-87
2022/03/27 09:23:55;;;;;;;20.33;9.43;;;;;;;20.20;23.47;100194.94;5075460;28;20165;-87
2022/03/27 09:26:21;;;;;;;24.30;12.93;;;;;;;19.10;23.19;100019.00;5051513;28;20642;-86
2022/03/27 09:28:49;;;;;;;20.40;11.10;;;;;;;19.68;22.83;99994.41;5056374;28;20176;-88
2022/03/27 09:31:16;;;;;;;23.17;9.37;;;;;;;20.57;22.17;100204.19;5056303;28;20164;-89
2022/03/27 09:33:46;;;;;;;17.00;9.23;;;;;;;19.15;21.32;99945.50;5055395;28;20169;-88
2022/03/27 09:36:33;;;;;;;23.77;13.73;;;;;;;20.36;21.48;100206.38;5038016;28;20174;-89
2022/03/27 09:39:13;;;;;;;28.50;16.47;;;;;;;20.71;21.93;100197.53;5037240;28;20176;-90
2022/03/27 09:41:40;;;;;;;17.20;9.87;;;;;;;20.37;22.01;100191.00;5045524;28;20193;-89
2022/03/27 09:44:11;;;;;;;22.30;11.53;;;;;;;19.62;21.73;99963.47;5036529;28;20180;-88
2022/03/27 09:46:59;;;;;;;17.70;10.43;;;;;;;20.72;21.78;100195.81;5056293;28;20169;-87
2022/03/27 09:49:31;;;;;;;19.67;10.30;;;;;;;20.72;21.48;100188.97;5056443;28;20649;-88
2022/03/27 09:52:05;;;;;;;17.23;9.27;;;;;;;19.46;20.22;99895.56;5053185;28;20170;-88
2022/03/27 09:54:49;;;;;;;17.87;8.90;;;;;;;20.24;20.97;100014.19;5054793;28;20165;-88
2022/03/27 09:57:17;;;;;;;16.97;8.77;;;;;;;20.77;21.22;100155.56;5054860;28;20284;-88
2022/03/27 09:59:43;;;;;;;12.33;6.80;;;;;;;19.01;21.33;99831.47;5036190;28;20165;-87
2022/03/27 10:02:26;;;;;;;21.20;9.40;;;;;;;21.11;20.79;100175.88;5053898;28;20189;-88
2022/03/27 10:04:58;;;;;;;16.27;7.37;;;;;;;20.51;20.74;100114.91;5054321;28;20539;-88
2022/03/27 10:07:25;;;;;;;16.93;9.10;;;;;;;19.38;21.19;99892.88;5052839;28;20173;-88
2022/03/27 10:09:55;;;;;;;16.73;10.30;;;;;;;19.63;20.91;99847.03;5067595;28;20161;-87
2022/03/27 10:12:28;;;;;;;19.80;10.20;;;;;;;21.03;21.30;100154.25;5068831;28;20169;-87
2022/03/27 10:14:59;;;;;;;20.33;11.77;;;;;;;20.40;21.75;100048.69;5065746;28;20240;-88
2022/03/27 10:17:27;;;;;;;14.90;8.37;;;;;;;20.87;21.24;100165.19;5056110;28;20237;-88
2022/03/27 10:19:57;;;;;;;21.70;10.53;;;;;;;18.51;21.36;99686.13;5054245;28;20258;-88
2022/03/27 10:22:27;;;;;;;19.77;9.67;;;;;;;21.57;21.18;100160.13;5052198;28;20193;-88
2022/03/27 10:24:57;;;;;;;18.17;9.70;;;;;;;21.50;20.88;100150.63;5053781;28;20204;-88
2022/03/27 10:27:23;;;;;;;18.17;10.27;;;;;;;21.48;20.61;100051.78;5053755;28;20637;-89
2022/03/27 10:29:49;;;;;;;13.93;7.40;;;;;;;18.96;20.95;99722.75;5054158;28;20227;-87
2022/03/27 10:32:15;;;;;;;15.27;7.77;;;;;;;20.00;20.95;99952.06;5053443;28;20244;-87
2022/03/27 10:34:56;;;;;;;27.60;12.07;;;;;;;21.46;20.70;100151.41;5053547;28;20189;-86
2022/03/27 10:37:59;;;;;;;23.80;12.83;;;;;;;21.90;20.54;100141.63;5055503;28;20174;-88
2022/03/27 10:40:42;;;;;;;13.43;7.50;;;;;;;21.84;20.46;100149.25;5053759;28;20214;-88
2022/03/27 10:43:19;;;;;;;11.50;6.57;;;;;;;20.77;20.19;100012.31;5035580;28;20280;-87
2022/03/27 10:46:05;;;;;;;16.27;7.40;;;;;;;20.21;20.32;100014.09;5053393;28;20319;-87
2022/03/27 10:48:38;;;;;;;13.87;8.23;;;;;;;20.69;19.95;100055.13;5052853;28;20252;-88
2022/03/27 10:51:03;;;;;;;16.00;6.80;;;;;;;19.99;21.07;99946.09;5053217;28;20156;-88
2022/03/27 10:53:28;;;;;;;12.70;7.57;;;;;;;21.03;20.64;100133.66;5037621;28;20173;-88
2022/03/27 10:55:56;;;;;;;18.53;9.20;;;;;;;19.55;20.42;99853.75;5056886;28;20252;-85
2022/03/27 10:58:41;;;;;;;17.07;9.27;;;;;;;19.85;20.70;99771.97;5070509;28;20157;-87
2022/03/27 11:01:22;;;;;;;16.60;9.17;;;;;;;22.21;20.10;100114.41;5063905;28;20700;-88
2022/03/27 11:04:10;;;;;;;21.50;8.70;;;;;;;22.08;19.84;100123.75;5036649;28;20176;-89
2022/03/27 11:06:39;;;;;;;19.03;9.60;;;;;;;21.55;19.89;100030.41;5053652;28;20303;-88
2022/03/27 11:09:09;;;;;;;32.83;18.83;;;;;;;21.49;20.12;99994.28;5054540;28;20212;-90
2022/03/27 11:11:38;;;;;;;38.80;23.13;;;;;;;22.51;19.24;100114.63;5056692;28;20162;-89
2022/03/27 11:14:22;;;;;;;56.20;30.63;;;;;;;21.71;18.90;99983.31;5053518;28;20218;-88
2022/03/27 11:17:30;;;;;;;58.27;35.57;;;;;;;22.73;19.32;100106.22;5053790;28;20243;-89
2022/03/27 11:19:55;;;;;;;44.73;24.00;;;;;;;22.86;19.36;100110.59;4993174;28;20199;-89
2022/03/27 11:22:52;;;;;;;32.73;14.43;;;;;;;22.68;19.09;100097.59;4975320;28;20270;-89
2022/03/27 11:25:25;;;;;;;27.13;14.03;;;;;;;22.54;18.58;100101.75;4976502;28;20268;-87